Time;durP1;ratioP1;P1;durP2;ratioP2;P2;SDS_P1;SDS_P2;PMS_P1;PMS_P2;Temp;Humidity;BMP_temperature;BMP_pressure;BME280_temperature;BME280_humidity;BME280_pressure;Samples;Min_cycle;Max_cycle;Signal;HPM_P1;HPM_P2
2023/05/21 00:02:17;;;;;;;4.65;2.05;;;15.30;99.90;;;;;;4983595;28;20124;-36
2023/05/21 00:04:43;;;;;;;3.35;1.58;;;15.30;99.90;;;;;;4965388;28;20160;-37
2023/05/21 00:07:10;;;;;;;3.47;1.40;;;15.40;99.90;;;;;;4982400;28;20050;-36
2023/05/21 00:09:39;;;;;;;3.95;1.90;;;15.40;99.90;;;;;;4984386;28;20050;-36
2023/05/21 00:12:06;;;;;;;3.45;1.55;;;15.40;99.90;;;;;;4984431;28;20046;-36
2023/05/21 00:14:32;;;;;;;3.35;1.80;;;15.40;99.90;;;;;;4986228;28;20394;-36
2023/05/21 00:16:58;;;;;;;5.70;1.63;;;15.30;99.90;;;;;;4984097;28;20045;-36
2023/05/21 00:19:23;;;;;;;3.25;1.75;;;15.30;99.90;;;;;;4983304;28;20053;-36
2023/05/21 00:21:49;;;;;;;2.97;1.38;;;15.30;99.90;;;;;;4969633;28;20047;-36
2023/05/21 00:24:15;;;;;;;3.72;1.50;;;15.30;99.90;;;;;;4983127;28;20540;-36
2023/05/21 00:26:41;;;;;;;3.35;1.60;;;15.30;99.90;;;;;;4986312;28;20077;-37
2023/05/21 00:29:06;;;;;;;4.07;1.55;;;15.30;99.90;;;;;;4984886;28;20039;-35
2023/05/21 00:31:32;;;;;;;3.47;1.75;;;15.30;99.90;;;;;;4983823;28;20093;-36
2023/05/21 00:33:58;;;;;;;2.05;1.35;;;15.30;99.90;;;;;;4982877;28;20133;-36
2023/05/21 00:36:24;;;;;;;3.67;1.60;;;15.20;99.90;;;;;;4980760;28;20774;-36
2023/05/21 00:38:50;;;;;;;4.90;1.60;;;15.20;99.90;;;;;;4980843;28;20108;-36
2023/05/21 00:41:16;;;;;;;4.90;1.50;;;15.20;99.90;;;;;;4978837;28;20760;-36
2023/05/21 00:43:43;;;;;;;3.45;1.45;;;15.20;99.90;;;;;;4981005;28;20085;-36
2023/05/21 00:46:18;;;;;;;4.20;1.70;;;15.20;99.90;;;;;;4960945;28;20129;-36
2023/05/21 00:48:45;;;;;;;4.13;1.90;;;15.10;99.90;;;;;;4982889;28;20054;-36
2023/05/21 00:51:14;;;;;;;5.40;1.80;;;15.10;99.90;;;;;;4965370;28;20141;-36
2023/05/21 00:53:41;;;;;;;3.28;1.67;;;15.10;99.90;;;;;;4984588;28;20054;-36
2023/05/21 00:56:07;;;;;;;4.40;1.70;;;15.10;99.90;;;;;;4982807;28;20054;-36
2023/05/21 00:58:33;;;;;;;2.63;1.50;;;15.10;99.90;;;;;;4986060;28;20132;-37
2023/05/21 01:01:02;;;;;;;4.75;1.70;;;15.10;99.90;;;;;;4964611;28;20536;-37
2023/05/21 01:03:37;;;;;;;3.13;1.60;;;15.00;99.90;;;;;;4985217;28;20054;-37
2023/05/21 01:06:07;;;;;;;3.47;1.50;;;15.00;99.90;;;;;;4982361;28;20057;-36
2023/05/21 01:08:35;;;;;;;4.95;1.67;;;15.00;99.90;;;;;;4988591;28;20598;-36
2023/05/21 01:11:02;;;;;;;4.13;1.58;;;15.00;99.90;;;;;;4986848;28;20062;-37
2023/05/21 01:13:29;;;;;;;2.88;1.80;;;15.00;99.90;;;;;;4988477;28;20054;-37
2023/05/21 01:15:56;;;;;;;2.95;1.65;;;15.00;99.90;;;;;;4993562;28;20088;-37
2023/05/21 01:18:22;;;;;;;3.42;1.80;;;15.00;99.90;;;;;;4986433;28;20078;-37
2023/05/21 01:20:49;;;;;;;3.63;1.60;;;14.90;99.90;;;;;;4987783;28;20046;-37
2023/05/21 01:23:18;;;;;;;5.00;1.65;;;14.90;99.90;;;;;;4969576;28;20046;-37
2023/05/21 01:25:45;;;;;;;3.20;1.88;;;14.90;99.90;;;;;;4984125;28;20063;-38
2023/05/21 01:28:11;;;;;;;10.43;1.90;;;15.00;99.90;;;;;;4981611;28;20504;-35
2023/05/21 01:30:39;;;;;;;3.70;1.88;;;15.00;99.90;;;;;;4983820;28;20058;-37
2023/05/21 01:33:36;;;;;;;3.22;1.42;;;15.00;99.90;;;;;;4987850;28;20488;-37
2023/05/21 01:36:12;;;;;;;3.83;1.90;;;14.90;99.90;;;;;;4987040;28;20129;-37
2023/05/21 01:39:06;;;;;;;4.97;1.88;;;14.90;99.90;;;;;;4986757;28;20050;-37
2023/05/21 01:41:37;;;;;;;2.83;1.40;;;14.90;99.90;;;;;;4987866;28;20047;-37
2023/05/21 01:44:05;;;;;;;3.83;1.50;;;14.80;99.90;;;;;;4981874;28;20054;-37
2023/05/21 01:46:33;;;;;;;4.10;1.95;;;14.80;99.90;;;;;;4976632;28;20070;-37
2023/05/21 01:48:59;;;;;;;2.85;1.75;;;14.80;99.90;;;;;;4974669;28;20145;-36
2023/05/21 01:51:26;;;;;;;3.47;1.80;;;14.80;99.90;;;;;;4979714;28;20106;-36
2023/05/21 01:53:52;;;;;;;3.47;1.85;;;14.80;99.90;;;;;;4984450;28;20050;-37
2023/05/21 01:56:17;;;;;;;4.32;1.95;;;14.80;99.90;;;;;;4986751;28;20055;-37
2023/05/21 01:58:43;;;;;;;8.32;2.03;;;14.80;99.90;;;;;;4967019;28;20065;-37
2023/05/21 02:01:09;;;;;;;3.22;1.90;;;14.70;99.90;;;;;;4989245;28;20057;-37
2023/05/21 02:03:34;;;;;;;3.70;1.80;;;14.70;99.90;;;;;;4987317;28;20050;-37
2023/05/21 02:06:00;;;;;;;4.40;1.80;;;14.70;99.90;;;;;;4988145;28;20546;-37
2023/05/21 02:08:26;;;;;;;4.75;1.80;;;14.70;99.90;;;;;;4986712;28;20061;-36
2023/05/21 02:10:52;;;;;;;6.82;1.75;;;14.70;99.90;;;;;;4984785;28;20547;-36
2023/05/21 02:13:21;;;;;;;4.68;2.17;;;14.60;99.90;;;;;;4967126;28;20073;-36
2023/05/21 02:15:47;;;;;;;5.15;1.80;;;14.60;99.90;;;;;;4985438;28;20632;-37
2023/05/21 02:18:15;;;;;;;5.35;1.73;;;14.60;99.90;;;;;;4986614;28;20058;-37
2023/05/21 02:20:42;;;;;;;4.20;2.00;;;14.60;99.90;;;;;;4986984;28;20392;-37
2023/05/21 02:23:08;;;;;;;4.55;1.98;;;14.60;99.90;;;;;;4989254;28;20050;-37
2023/05/21 02:25:34;;;;;;;4.88;2.10;;;14.60;99.90;;;;;;4986181;28;20082;-36
2023/05/21 02:28:01;;;;;;;5.07;2.05;;;14.50;99.90;;;;;;4982104;28;21158;-36
2023/05/21 02:30:27;;;;;;;5.40;2.13;;;14.50;99.90;;;;;;4985714;28;20089;-36
2023/05/21 02:32:52;;;;;;;3.60;1.88;;;14.50;99.90;;;;;;4982790;28;20078;-36
2023/05/21 02:35:18;;;;;;;5.65;2.00;;;14.50;99.90;;;;;;4982021;28;20054;-36
2023/05/21 02:37:44;;;;;;;3.67;2.08;;;14.50;99.90;;;;;;4981696;28;20050;-36
2023/05/21 02:40:10;;;;;;;9.07;2.25;;;14.50;99.90;;;;;;4981790;28;21262;-37
2023/05/21 02:42:38;;;;;;;3.30;2.10;;;14.50;99.90;;;;;;4980746;28;20057;-37
2023/05/21 02:45:08;;;;;;;3.83;1.67;;;14.50;99.90;;;;;;4961372;28;20129;-36
2023/05/21 02:47:33;;;;;;;5.28;2.20;;;14.50;99.90;;;;;;4982209;28;20530;-37
2023/05/21 02:50:00;;;;;;;5.05;2.15;;;14.50;99.90;;;;;;4980609;28;20046;-37
2023/05/21 02:52:26;;;;;;;7.75;1.90;;;14.50;99.90;;;;;;4979198;28;20054;-37
2023/05/21 02:54:52;;;;;;;3.78;2.13;;;14.50;99.90;;;;;;4979921;28;20038;-38
2023/05/21 02:57:18;;;;;;;4.18;2.13;;;14.50;99.90;;;;;;4963753;28;20496;-38
2023/05/21 02:59:44;;;;;;;5.07;1.98;;;14.50;99.90;;;;;;4981149;28;20054;-37
2023/05/21 03:02:10;;;;;;;5.63;2.20;;;14.50;99.90;;;;;;4979009;28;20104;-36
2023/05/21 03:04:37;;;;;;;5.68;2.35;;;14.50;99.90;;;;;;4979238;28;20066;-37
2023/05/21 03:07:04;;;;;;;8.00;2.20;;;14.50;99.90;;;;;;4979839;28;21315;-36
2023/05/21 03:09:30;;;;;;;4.75;1.75;;;14.50;99.90;;;;;;4982226;28;20050;-37
2023/05/21 03:11:55;;;;;;;5.18;2.65;;;14.50;99.90;;;;;;4984799;28;20050;-37
2023/05/21 03:14:23;;;;;;;6.90;2.47;;;14.50;99.90;;;;;;4983710;28;20143;-37
2023/05/21 03:16:50;;;;;;;8.18;2.58;;;14.50;99.90;;;;;;4985424;28;20061;-36
2023/05/21 03:19:15;;;;;;;7.43;2.35;;;14.50;99.90;;;;;;4979013;28;20522;-37
2023/05/21 03:21:41;;;;;;;4.28;2.08;;;14.50;99.90;;;;;;4986894;28;20066;-37
2023/05/21 03:24:08;;;;;;;4.40;1.90;;;14.50;99.90;;;;;;4981999;28;20081;-37
2023/05/21 03:26:34;;;;;;;4.35;2.35;;;14.50;99.90;;;;;;4976755;28;20769;-37
2023/05/21 03:29:00;;;;;;;5.25;2.30;;;14.50;99.90;;;;;;4944802;28;21918;-37
2023/05/21 03:31:26;;;;;;;5.10;1.98;;;14.50;99.90;;;;;;4961039;28;20174;-37
2023/05/21 03:33:52;;;;;;;4.22;2.00;;;14.50;99.90;;;;;;4959699;28;20054;-37
2023/05/21 03:36:18;;;;;;;3.85;1.95;;;14.40;99.90;;;;;;4960798;28;20055;-37
2023/05/21 03:38:44;;;;;;;4.90;2.05;;;14.40;99.90;;;;;;4963707;28;20525;-37
2023/05/21 03:41:10;;;;;;;4.28;2.45;;;14.40;99.90;;;;;;4965465;28;20051;-37
2023/05/21 03:43:36;;;;;;;7.93;2.95;;;14.40;99.90;;;;;;4968096;28;20497;-37
2023/05/21 03:46:02;;;;;;;4.90;2.20;;;14.30;99.90;;;;;;4958962;28;20149;-37
2023/05/21 03:48:27;;;;;;;4.30;2.03;;;14.30;99.90;;;;;;4946966;28;20390;-37
2023/05/21 03:50:53;;;;;;;3.53;2.00;;;14.30;99.90;;;;;;4951391;28;20046;-37
2023/05/21 03:53:19;;;;;;;3.17;1.60;;;14.30;99.90;;;;;;4963889;28;20453;-37
2023/05/21 03:55:44;;;;;;;3.90;2.10;;;14.30;99.90;;;;;;4947968;28;20193;-37
2023/05/21 03:58:10;;;;;;;4.57;2.65;;;14.30;99.90;;;;;;4966126;28;20519;-37
2023/05/21 04:00:36;;;;;;;4.47;2.28;;;14.30;99.90;;;;;;4960920;28;20383;-37
2023/05/21 04:03:05;;;;;;;5.40;2.58;;;14.30;99.90;;;;;;4960538;28;20508;-36
2023/05/21 04:05:31;;;;;;;4.10;2.20;;;14.30;99.90;;;;;;4962097;28;20050;-37
2023/05/21 04:07:58;;;;;;;5.10;2.63;;;14.30;99.90;;;;;;4962659;28;20081;-36
2023/05/21 04:10:25;;;;;;;5.00;2.50;;;14.30;99.90;;;;;;4962461;28;20106;-38
2023/05/21 04:12:51;;;;;;;5.05;2.55;;;14.30;99.90;;;;;;4964583;28;20112;-36
2023/05/21 04:15:20;;;;;;;6.53;3.05;;;14.30;99.90;;;;;;4961586;28;20455;-36
2023/05/21 04:17:45;;;;;;;7.20;2.85;;;14.30;99.90;;;;;;4961270;28;20440;-37
2023/05/21 04:20:15;;;;;;;4.25;2.05;;;14.30;99.90;;;;;;4964168;28;20051;-36
2023/05/21 04:22:41;;;;;;;5.97;2.63;;;14.30;99.90;;;;;;4951358;28;20043;-37
2023/05/21 04:25:07;;;;;;;4.20;2.40;;;14.30;99.90;;;;;;4963853;28;20109;-36
2023/05/21 04:27:33;;;;;;;6.70;2.67;;;14.30;99.90;;;;;;4983181;28;20078;-36
2023/05/21 04:29:59;;;;;;;5.22;2.35;;;14.40;99.90;;;;;;4987037;28;20112;-37
2023/05/21 04:32:27;;;;;;;6.60;2.47;;;14.40;99.90;;;;;;4984622;28;20467;-38
2023/05/21 04:34:53;;;;;;;4.60;2.33;;;14.40;99.90;;;;;;4985888;28;20484;-37
2023/05/21 04:37:18;;;;;;;5.88;2.25;;;14.30;99.90;;;;;;4984191;28;20049;-36
2023/05/21 04:39:45;;;;;;;5.57;2.35;;;14.40;99.90;;;;;;4967748;28;20117;-36
2023/05/21 04:42:11;;;;;;;4.93;2.60;;;14.40;99.90;;;;;;4962703;28;20045;-36
2023/05/21 04:44:39;;;;;;;3.25;2.10;;;14.40;99.90;;;;;;4985409;28;20105;-37
2023/05/21 04:47:05;;;;;;;5.32;2.30;;;14.40;99.90;;;;;;4966550;28;20042;-37
2023/05/21 04:49:33;;;;;;;7.32;2.53;;;14.40;99.90;;;;;;4987798;28;20058;-36
2023/05/21 04:51:59;;;;;;;5.18;2.50;;;14.40;99.90;;;;;;4984299;28;20514;-36
2023/05/21 04:54:25;;;;;;;8.88;2.42;;;14.40;99.90;;;;;;4983841;28;20109;-38
2023/05/21 04:56:50;;;;;;;5.55;2.55;;;14.40;99.90;;;;;;4985073;28;20055;-36
2023/05/21 04:59:17;;;;;;;6.57;3.03;;;14.40;99.90;;;;;;4983704;28;20054;-37
2023/05/21 05:01:43;;;;;;;7.50;3.17;;;14.30;99.90;;;;;;4986581;28;20085;-36
2023/05/21 05:04:08;;;;;;;4.78;2.55;;;14.40;99.90;;;;;;4960834;28;20074;-36
2023/05/21 05:06:34;;;;;;;6.63;2.80;;;14.40;99.90;;;;;;4984153;28;20050;-36
2023/05/21 05:09:00;;;;;;;5.97;2.33;;;14.40;99.90;;;;;;4978395;28;20160;-36
2023/05/21 05:11:25;;;;;;;4.18;2.00;;;14.40;99.90;;;;;;4981527;28;20120;-37
2023/05/21 05:13:51;;;;;;;4.40;2.38;;;14.40;99.90;;;;;;4972790;28;20081;-37
2023/05/21 05:16:23;;;;;;;5.82;2.58;;;14.40;99.90;;;;;;4973605;28;20412;-37
2023/05/21 05:18:51;;;;;;;4.03;2.35;;;14.50;99.90;;;;;;4975503;28;20128;-37
2023/05/21 05:21:17;;;;;;;3.78;2.10;;;14.50;99.90;;;;;;4984465;28;20063;-37
2023/05/21 05:23:42;;;;;;;4.82;2.38;;;14.50;99.90;;;;;;4987064;28;20409;-37
2023/05/21 05:26:09;;;;;;;5.10;2.00;;;14.50;99.90;;;;;;4982275;28;20125;-37
2023/05/21 05:28:34;;;;;;;6.30;2.83;;;14.50;99.90;;;;;;4986893;28;20093;-37
2023/05/21 05:31:00;;;;;;;5.82;2.15;;;14.50;99.90;;;;;;4984922;28;20058;-37
2023/05/21 05:33:26;;;;;;;4.32;2.45;;;14.60;99.90;;;;;;4984555;28;20104;-38
2023/05/21 05:35:52;;;;;;;6.38;2.17;;;14.60;99.90;;;;;;4984947;28;20054;-38
2023/05/21 05:38:17;;;;;;;5.85;2.60;;;14.60;99.90;;;;;;4986166;28;20058;-36
2023/05/21 05:40:43;;;;;;;7.10;3.33;;;14.60;99.90;;;;;;4986767;28;20066;-37
2023/05/21 05:43:09;;;;;;;6.63;2.60;;;14.70;99.90;;;;;;4984338;28;20051;-36
2023/05/21 05:45:34;;;;;;;8.20;2.70;;;14.70;99.90;;;;;;4986119;28;20100;-37
2023/05/21 05:48:00;;;;;;;7.28;2.65;;;14.70;99.90;;;;;;4966860;28;20087;-37
2023/05/21 05:50:26;;;;;;;4.65;2.13;;;14.70;99.90;;;;;;4984226;28;20055;-37
2023/05/21 05:52:52;;;;;;;5.00;2.78;;;14.80;99.90;;;;;;4984576;28;20054;-37
2023/05/21 05:55:18;;;;;;;6.80;2.50;;;14.80;99.90;;;;;;4984843;28;21801;-37
2023/05/21 05:57:44;;;;;;;6.47;2.72;;;14.90;99.90;;;;;;4986671;28;20567;-38
2023/05/21 06:00:10;;;;;;;4.70;2.38;;;14.90;99.90;;;;;;4963549;28;20124;-37
2023/05/21 06:02:36;;;;;;;5.47;2.70;;;14.90;99.90;;;;;;4982546;28;20058;-38
2023/05/21 06:05:02;;;;;;;3.95;2.50;;;14.90;99.90;;;;;;4985228;28;20069;-36
2023/05/21 06:07:28;;;;;;;5.10;2.05;;;15.00;99.90;;;;;;4986052;28;20058;-37
2023/05/21 06:09:54;;;;;;;7.30;2.42;;;15.00;99.90;;;;;;4985587;28;20057;-37
2023/05/21 06:12:20;;;;;;;3.28;1.98;;;15.00;99.90;;;;;;4980576;28;20046;-37
2023/05/21 06:14:47;;;;;;;7.43;2.67;;;15.10;99.90;;;;;;4987026;28;20044;-37
2023/05/21 06:17:13;;;;;;;8.68;2.40;;;15.10;99.90;;;;;;4985200;28;20046;-36
2023/05/21 06:19:39;;;;;;;6.43;2.67;;;15.20;99.90;;;;;;4984981;28;20081;-37
2023/05/21 06:22:05;;;;;;;5.10;2.40;;;15.20;99.90;;;;;;4986472;28;20070;-37
2023/05/21 06:24:30;;;;;;;6.43;2.05;;;15.30;99.90;;;;;;4986163;28;20046;-37
2023/05/21 06:26:56;;;;;;;4.72;2.22;;;15.30;99.90;;;;;;4967488;28;20106;-36
2023/05/21 06:29:22;;;;;;;5.93;2.47;;;15.40;99.90;;;;;;4979658;28;20081;-37
2023/05/21 06:31:47;;;;;;;5.07;2.60;;;15.40;99.90;;;;;;4985489;28;20113;-37
2023/05/21 06:34:13;;;;;;;4.15;2.33;;;15.50;99.90;;;;;;4982479;28;20507;-37
2023/05/21 06:36:39;;;;;;;5.88;2.40;;;15.60;99.90;;;;;;4988184;28;20053;-36
2023/05/21 06:39:04;;;;;;;7.07;2.83;;;15.60;99.90;;;;;;4986918;28;20050;-37
2023/05/21 06:41:30;;;;;;;5.93;1.95;;;15.70;99.90;;;;;;4983808;28;20049;-37
2023/05/21 06:43:56;;;;;;;6.45;2.53;;;15.70;99.90;;;;;;4986037;28;20093;-37
2023/05/21 06:46:21;;;;;;;6.20;2.42;;;15.80;99.90;;;;;;4982051;28;20054;-36
2023/05/21 06:48:47;;;;;;;4.88;1.95;;;15.80;99.90;;;;;;4983608;28;20128;-37
2023/05/21 06:51:12;;;;;;;5.97;2.78;;;15.80;99.90;;;;;;4983138;28;20464;-37
2023/05/21 06:53:38;;;;;;;5.43;2.33;;;15.90;99.90;;;;;;4987270;28;20058;-37
2023/05/21 06:56:04;;;;;;;5.22;2.50;;;15.90;99.90;;;;;;4984515;28;20080;-37
2023/05/21 06:58:30;;;;;;;4.65;1.90;;;15.90;99.90;;;;;;4984262;28;20068;-37
2023/05/21 07:01:00;;;;;;;5.80;2.22;;;16.00;99.90;;;;;;4983158;28;20046;-37
2023/05/21 07:03:26;;;;;;;5.60;2.00;;;16.00;99.90;;;;;;4980910;28;20618;-37
2023/05/21 07:05:52;;;;;;;4.40;2.10;;;16.00;99.90;;;;;;4983531;28;20047;-37
2023/05/21 07:08:18;;;;;;;3.58;2.10;;;16.00;99.90;;;;;;4983995;28;20156;-37
2023/05/21 07:10:45;;;;;;;6.55;2.58;;;16.10;99.90;;;;;;4982261;28;20058;-37
2023/05/21 07:13:11;;;;;;;5.18;2.17;;;16.20;99.90;;;;;;4981761;28;20053;-37
2023/05/21 07:15:37;;;;;;;5.95;2.28;;;16.30;99.90;;;;;;4978300;28;20065;-37
2023/05/21 07:18:02;;;;;;;5.95;2.03;;;16.40;99.90;;;;;;4977109;28;20082;-37
2023/05/21 07:20:28;;;;;;;4.90;2.25;;;16.50;99.90;;;;;;4977508;28;20057;-37
2023/05/21 07:22:54;;;;;;;5.10;2.42;;;16.60;99.90;;;;;;4974943;28;20527;-38
2023/05/21 07:25:20;;;;;;;11.07;2.58;;;16.70;99.90;;;;;;4978415;28;21382;-37
2023/05/21 07:27:46;;;;;;;4.22;2.10;;;16.70;99.90;;;;;;4979027;28;20492;-36
2023/05/21 07:30:13;;;;;;;4.60;2.30;;;16.80;99.90;;;;;;4985610;28;20052;-37
2023/05/21 07:32:38;;;;;;;5.50;2.92;;;16.80;99.90;;;;;;4980700;28;20490;-37
2023/05/21 07:35:04;;;;;;;5.32;2.38;;;16.90;99.90;;;;;;4975452;28;20050;-36
2023/05/21 07:37:30;;;;;;;3.60;2.17;;;17.10;99.90;;;;;;4977469;28;20112;-36
2023/05/21 07:39:59;;;;;;;6.25;2.90;;;17.20;99.90;;;;;;4983402;28;20050;-37
2023/05/21 07:42:25;;;;;;;8.18;2.63;;;17.30;99.90;;;;;;4984083;28;20513;-36
2023/05/21 07:44:50;;;;;;;4.20;2.40;;;17.30;99.90;;;;;;4980505;28;20046;-37
2023/05/21 07:47:16;;;;;;;5.97;2.63;;;17.40;99.90;;;;;;4985581;28;20415;-37
2023/05/21 07:49:42;;;;;;;6.97;2.75;;;17.40;99.90;;;;;;4979000;28;20046;-36
2023/05/21 07:52:08;;;;;;;4.82;2.35;;;17.40;99.90;;;;;;4981277;28;20054;-38
2023/05/21 07:54:33;;;;;;;4.43;2.22;;;17.40;99.90;;;;;;4984305;28;20133;-38
2023/05/21 07:57:01;;;;;;;5.22;2.13;;;17.50;99.90;;;;;;4979129;28;20065;-38
2023/05/21 07:59:27;;;;;;;5.18;2.42;;;17.60;99.90;;;;;;4975168;28;20050;-36
2023/05/21 08:01:53;;;;;;;5.55;2.30;;;17.60;99.90;;;;;;4984109;28;20753;-36
2023/05/21 08:04:18;;;;;;;3.72;2.08;;;17.70;99.90;;;;;;4981634;28;20514;-37
2023/05/21 08:06:44;;;;;;;5.20;2.67;;;17.70;99.90;;;;;;4983330;28;20128;-37
2023/05/21 08:09:11;;;;;;;4.65;2.30;;;17.80;99.90;;;;;;4981892;28;20424;-36
2023/05/21 08:11:39;;;;;;;4.88;2.60;;;17.90;99.90;;;;;;4979864;28;20052;-37
2023/05/21 08:14:05;;;;;;;4.82;2.50;;;18.00;99.90;;;;;;4983473;28;20057;-37
2023/05/21 08:16:31;;;;;;;5.97;2.40;;;18.10;99.90;;;;;;4980918;28;20046;-36
2023/05/21 08:18:56;;;;;;;4.95;2.53;;;18.20;99.90;;;;;;4982524;28;20196;-36
2023/05/21 08:21:22;;;;;;;5.53;2.78;;;18.30;99.90;;;;;;4980445;28;20050;-37
2023/05/21 08:23:50;;;;;;;5.70;2.90;;;18.40;99.90;;;;;;4981737;28;20136;-37
2023/05/21 08:26:16;;;;;;;5.32;2.42;;;18.40;99.90;;;;;;4984980;28;20373;-37
2023/05/21 08:28:42;;;;;;;4.25;2.53;;;18.60;99.90;;;;;;4979222;28;20061;-37
2023/05/21 08:31:08;;;;;;;4.43;2.80;;;18.70;99.90;;;;;;4979849;28;20054;-36
2023/05/21 08:33:37;;;;;;;8.25;3.20;;;18.90;99.90;;;;;;4979176;28;20058;-37
2023/05/21 08:36:04;;;;;;;5.60;2.40;;;19.00;99.90;;;;;;4981701;28;20064;-38
2023/05/21 08:38:30;;;;;;;4.47;2.63;;;19.20;99.90;;;;;;4981931;28;20104;-36
2023/05/21 08:40:57;;;;;;;4.78;2.67;;;19.30;99.90;;;;;;4982110;28;20054;-37
2023/05/21 08:43:27;;;;;;;4.82;2.60;;;19.40;99.90;;;;;;4981879;28;20081;-37
2023/05/21 08:45:54;;;;;;;5.88;2.58;;;19.50;99.90;;;;;;4974591;28;20085;-37
2023/05/21 08:48:23;;;;;;;4.53;3.10;;;19.50;99.90;;;;;;4981171;28;20075;-37
2023/05/21 08:50:51;;;;;;;4.47;2.50;;;19.50;99.90;;;;;;4984046;28;20108;-36
2023/05/21 08:53:16;;;;;;;5.68;2.78;;;19.60;99.90;;;;;;4981561;28;20052;-38
2023/05/21 08:55:43;;;;;;;4.95;3.20;;;19.60;99.90;;;;;;4981342;28;20506;-38
2023/05/21 08:58:09;;;;;;;4.40;2.55;;;19.50;99.90;;;;;;4982805;28;20050;-35
2023/05/21 09:00:36;;;;;;;5.32;3.13;;;19.50;99.90;;;;;;4981845;28;20046;-38
2023/05/21 09:03:06;;;;;;;6.35;3.05;;;19.50;99.90;;;;;;4962764;28;20093;-37
2023/05/21 09:05:33;;;;;;;5.32;2.70;;;19.40;99.90;;;;;;4978468;28;20133;-36
2023/05/21 09:08:12;;;;;;;5.18;2.70;;;19.40;99.90;;;;;;4983773;28;20123;-37
2023/05/21 09:10:41;;;;;;;6.50;3.45;;;19.40;99.90;;;;;;4982791;28;20416;-36
2023/05/21 09:13:08;;;;;;;5.13;2.78;;;19.40;99.90;;;;;;4985545;28;20060;-37
2023/05/21 09:15:34;;;;;;;4.50;2.60;;;19.40;99.90;;;;;;4982095;28;20109;-37
2023/05/21 09:18:00;;;;;;;5.50;2.90;;;19.50;99.90;;;;;;4980354;28;20058;-37
2023/05/21 09:20:27;;;;;;;4.43;2.55;;;19.50;99.90;;;;;;4979527;28;20050;-37
2023/05/21 09:22:54;;;;;;;4.15;2.60;;;19.40;99.90;;;;;;4984477;28;20777;-37
2023/05/21 09:25:26;;;;;;;5.32;2.50;;;19.50;99.90;;;;;;4981221;28;20654;-37
2023/05/21 09:27:54;;;;;;;5.90;2.90;;;19.50;99.90;;;;;;4971434;28;20122;-37
2023/05/21 09:30:20;;;;;;;4.35;2.60;;;19.50;99.90;;;;;;4961110;28;20062;-37
2023/05/21 09:32:52;;;;;;;5.60;2.90;;;19.60;99.90;;;;;;4963165;28;20125;-37
2023/05/21 09:35:18;;;;;;;;;;;19.60;99.90;;;;;;4951371;28;20528;-37
2023/05/21 09:37:47;;;;;;;5.53;2.75;;;19.70;99.90;;;;;;4959876;28;19933;-37
2023/05/21 09:40:15;;;;;;;4.85;2.75;;;19.80;99.90;;;;;;4961103;28;20082;-37
2023/05/21 09:42:51;;;;;;;5.82;3.03;;;19.90;99.90;;;;;;4966109;28;20042;-36
2023/05/21 09:45:21;;;;;;;8.43;3.20;;;20.10;99.90;;;;;;4964948;28;20047;-37
2023/05/21 09:47:48;;;;;;;12.52;3.55;;;20.20;99.90;;;;;;4965008;28;20066;-37
2023/05/21 09:50:19;;;;;;;5.45;2.78;;;20.30;99.90;;;;;;4961897;28;20059;-37
2023/05/21 09:52:45;;;;;;;8.07;2.92;;;20.40;99.90;;;;;;4966961;28;20101;-36
2023/05/21 09:55:12;;;;;;;5.63;2.53;;;20.50;99.90;;;;;;4959313;28;20089;-36
2023/05/21 09:57:41;;;;;;;4.80;2.72;;;20.60;99.90;;;;;;4962506;28;20059;-37
2023/05/21 10:00:09;;;;;;;5.53;2.78;;;20.70;99.90;;;;;;4965241;28;20500;-37
2023/05/21 10:02:38;;;;;;;6.00;3.53;;;20.80;99.90;;;;;;4958016;28;21520;-37
2023/05/21 10:05:09;;;;;;;6.63;3.35;;;20.90;99.90;;;;;;4962306;28;20062;-38
2023/05/21 10:07:35;;;;;;;5.63;2.80;;;21.00;99.90;;;;;;4964173;28;20145;-37
2023/05/21 10:10:03;;;;;;;4.38;2.35;;;21.00;99.90;;;;;;4964073;28;20481;-36
2023/05/21 10:12:30;;;;;;;5.10;3.05;;;20.90;99.90;;;;;;4959930;28;20053;-37
2023/05/21 10:15:00;;;;;;;6.25;2.92;;;21.00;99.90;;;;;;4958902;28;20055;-37
2023/05/21 10:17:29;;;;;;;4.63;2.50;;;21.10;99.90;;;;;;4956188;28;20062;-38
2023/05/21 10:19:55;;;;;;;6.57;3.08;;;21.20;99.90;;;;;;4956939;28;20054;-37
2023/05/21 10:22:23;;;;;;;3.65;2.30;;;21.30;99.90;;;;;;4961746;28;20143;-37
2023/05/21 10:24:50;;;;;;;4.95;2.90;;;21.40;99.90;;;;;;4965187;28;20412;-37
2023/05/21 10:27:17;;;;;;;6.80;3.05;;;21.40;99.90;;;;;;4976932;28;20613;-37
2023/05/21 10:29:44;;;;;;;7.57;3.28;;;21.50;99.90;;;;;;4983587;28;20108;-38
2023/05/21 10:32:13;;;;;;;4.10;2.40;;;21.60;99.90;;;;;;4982795;28;20054;-37
2023/05/21 10:34:40;;;;;;;6.18;2.83;;;21.70;99.90;;;;;;4977076;28;20065;-37
2023/05/21 10:37:08;;;;;;;6.53;2.83;;;21.70;99.90;;;;;;4981284;28;20117;-37
2023/05/21 10:39:35;;;;;;;5.40;2.88;;;21.90;99.90;;;;;;4974349;28;21550;-37
2023/05/21 10:42:22;;;;;;;4.70;3.22;;;22.00;99.90;;;;;;4978435;28;20528;-37
2023/05/21 10:44:54;;;;;;;5.60;3.35;;;22.20;99.90;;;;;;4977473;28;20046;-36
2023/05/21 10:47:39;;;;;;;7.67;3.50;;;22.30;99.90;;;;;;4979637;28;20082;-37
2023/05/21 10:50:35;;;;;;;8.05;3.90;;;22.50;99.90;;;;;;4972409;28;20365;-37
2023/05/21 10:53:21;;;;;;;6.25;3.45;;;22.60;99.90;;;;;;4980671;28;20050;-37
2023/05/21 10:56:02;;;;;;;6.28;4.13;;;22.70;99.90;;;;;;4982010;28;20042;-37
2023/05/21 10:58:40;;;;;;;6.47;3.53;;;22.80;99.90;;;;;;4980314;28;20058;-37
2023/05/21 11:01:06;;;;;;;6.47;4.57;;;22.80;99.90;;;;;;4980660;28;20084;-36
2023/05/21 11:03:33;;;;;;;8.10;4.40;;;22.70;99.90;;;;;;4964837;28;20510;-37
2023/05/21 11:06:01;;;;;;;8.18;4.93;;;22.60;99.90;;;;;;4982073;28;20130;-38
2023/05/21 11:08:30;;;;;;;7.43;5.05;;;22.60;99.90;;;;;;4975993;28;20420;-37
2023/05/21 11:10:59;;;;;;;8.93;5.28;;;22.60;99.90;;;;;;4981527;28;20492;-37
2023/05/21 11:13:26;;;;;;;9.10;5.10;;;22.60;99.90;;;;;;4979063;28;22996;-37
2023/05/21 11:15:58;;;;;;;8.23;5.30;;;22.70;99.90;;;;;;4982107;28;20105;-37
2023/05/21 11:18:32;;;;;;;12.32;6.57;;;22.70;99.90;;;;;;4977836;28;20500;-37
2023/05/21 11:21:09;;;;;;;9.80;5.10;;;22.70;99.90;;;;;;4983455;28;20069;-37
2023/05/21 11:23:50;;;;;;;10.40;4.80;;;22.80;99.90;;;;;;4985839;28;20046;-38
2023/05/21 11:26:23;;;;;;;10.93;5.03;;;23.00;99.90;;;;;;4984652;28;20562;-36
2023/05/21 11:29:03;;;;;;;9.60;5.65;;;23.20;99.90;;;;;;4982639;28;20506;-37
2023/05/21 11:31:37;;;;;;;9.05;5.78;;;23.40;99.90;;;;;;4984222;28;20057;-38
2023/05/21 11:34:18;;;;;;;11.90;6.07;;;23.50;99.90;;;;;;4980266;28;20042;-37
2023/05/21 11:36:46;;;;;;;8.25;5.95;;;23.60;99.90;;;;;;4986143;28;20467;-38
2023/05/21 11:39:20;;;;;;;8.82;5.85;;;23.60;99.90;;;;;;4978276;28;20091;-37
2023/05/21 11:42:00;;;;;;;10.18;5.50;;;23.80;99.90;;;;;;4982721;28;20058;-37
2023/05/21 11:44:43;;;;;;;8.18;4.95;;;23.90;99.90;;;;;;4983295;28;20112;-37
2023/05/21 11:47:10;;;;;;;9.85;5.50;;;23.90;99.90;;;;;;4979992;28;20061;-37
2023/05/21 11:49:37;;;;;;;8.70;5.32;;;24.00;99.90;;;;;;4978390;28;20058;-37
2023/05/21 11:52:04;;;;;;;8.90;5.40;;;24.00;99.90;;;;;;4972591;28;20784;-38
2023/05/21 11:54:36;;;;;;;10.25;5.68;;;24.10;99.90;;;;;;4981453;28;20193;-38
2023/05/21 11:57:08;;;;;;;11.15;5.80;;;24.20;99.90;;;;;;4975294;28;20563;-38
2023/05/21 11:59:35;;;;;;;10.10;5.45;;;24.30;99.90;;;;;;4979972;28;20057;-37
2023/05/21 12:02:01;;;;;;;7.38;5.18;;;24.40;99.90;;;;;;4978763;28;20617;-37
2023/05/21 12:04:31;;;;;;;11.05;5.57;;;24.40;99.90;;;;;;4982212;28;20054;-37
2023/05/21 12:06:59;;;;;;;9.25;5.30;;;24.40;99.90;;;;;;4982835;28;20420;-37
2023/05/21 12:09:25;;;;;;;8.65;5.72;;;24.40;99.90;;;;;;4975967;28;20060;-35
2023/05/21 12:11:51;;;;;;;9.15;5.55;;;24.50;99.90;;;;;;4975311;28;20058;-38
2023/05/21 12:14:17;;;;;;;9.45;5.28;;;24.50;99.90;;;;;;4981820;28;20042;-38
2023/05/21 12:16:43;;;;;;;9.32;6.05;;;24.60;99.90;;;;;;4980390;28;20496;-37
2023/05/21 12:19:08;;;;;;;10.43;5.10;;;24.70;99.90;;;;;;4974540;28;20062;-37
2023/05/21 12:21:35;;;;;;;8.48;4.70;;;24.80;99.90;;;;;;4976852;28;20500;-38
2023/05/21 12:24:01;;;;;;;6.63;4.78;;;24.90;99.90;;;;;;4978560;28;20046;-37
2023/05/21 12:26:27;;;;;;;8.35;5.30;;;25.10;99.90;;;;;;4979068;28;20054;-36
2023/05/21 12:28:53;;;;;;;7.55;5.28;;;25.20;99.90;;;;;;4979942;28;20511;-37
2023/05/21 12:31:23;;;;;;;8.45;5.43;;;25.40;99.90;;;;;;4959932;28;20383;-36
2023/05/21 12:33:50;;;;;;;8.75;5.40;;;25.30;99.90;;;;;;4977123;28;20061;-37
2023/05/21 12:36:45;;;;;;;8.57;5.28;;;25.10;99.90;;;;;;4976499;28;20190;-37
2023/05/21 12:39:10;;;;;;;7.82;5.22;;;25.20;99.90;;;;;;4977466;28;20116;-38
2023/05/21 12:41:36;;;;;;;7.00;5.00;;;25.20;99.90;;;;;;4977429;28;20054;-36
2023/05/21 12:44:04;;;;;;;14.95;5.00;;;25.30;99.90;;;;;;4983429;28;20049;-37
2023/05/21 12:46:30;;;;;;;8.70;5.03;;;25.40;99.90;;;;;;4986321;28;20054;-37
2023/05/21 12:48:56;;;;;;;8.57;5.60;;;25.50;99.90;;;;;;4983807;28;20054;-37